首页
METAR-TAF:

METAR-TAF

机场 :

格勒诺布尔, 法国

纬度: 45-22N, 经度: 005-20E, 海拔: 384米

当前天气观测

该预报发布于21分钟前的19:30 UTC
风速5节,风向
温度 2°C
湿度 69%
气压 1015 hPa
能见度10公里或以上
少量云层高于7600英尺

METAR: LFLS 261930Z AUTO 19005KT 9999 FEW076 02/M03 Q1015 TEMPO 2500 SHRASN BKN008 FEW020TCU

时间: 20:51 (19:51 UTC)

预报

该预报发布于5小时和51分钟前的14:00 UTC
预报有效从26日的 15点(UTC)到 27日的 15点(UTC)
风速12节,风向西转西北
能见度10公里或以上
多云层高于4000英尺
短暂存在
从 26日的 15点(UTC)到 26日的 18点(UTC)
风速15节,风向西,有时为25节阵风
短暂存在
从 26日的 15点(UTC)到 26日的 22点(UTC)
能見度: 4000
多云层高于800英尺
少量云层高于2000英尺, 塔状积云.
阵雨
几率 40% :
短暂存在
从 26日的 15点(UTC)到 26日的 22点(UTC)
能見度: 2500
阵雨, 雪
成为
从 26日的 20点(UTC)到 26日的 22点(UTC)
风速5节,风向
成为
从 27日的 07点(UTC)到 27日的 09点(UTC)
风速15节,风向南转西南,有时为25节阵风
多云层高于4000英尺
阴天层高于5500英尺
几率 30% :
短暂存在
从 27日的 09点(UTC)到 27日的 11点(UTC)
小雨, 雪
短暂存在
从 27日的 12点(UTC)到 27日的 15点(UTC)
风速20节,风向南转西南,有时为35节阵风
能見度: 4000

TAF: LFLS 261400Z 2615/2715 30012KT 9999 BKN040 TEMPO 2615/2618 27015G25KT TEMPO 2615/2622 4000 SHRA BKN008 FEW020TCU PROB40 TEMPO 2615/2622 2500 SHRASN BECMG 2620/2622 09005KT BECMG 2707/2709 21015G25KT BKN040 OVC055 PROB30 TEMPO 2709/2711 -RASN TEMPO 2712/2715 21020G35KT 4000 RA

超过4000个机场的气象观测和天气预报(METAR&TAF报告)。

可查询的气象台以黄色和红色小点在地图上表示。

将鼠标移到小点上方,可查看气象台名称。

然后点击查看天气观测和预报。

如需切换地图:点击带黑十字的绿色按钮放大地图;点击带横线的绿色按钮缩小地图;或者点击绿色箭头查看邻近地区的地图。


METAR-TAF: